Sierra Nevada Aquatic Research Lab (SNARL) Reserve, Santa Monica Mtns, California Weather observations

Data are for 10 minute period ending at time listed.
 Day   Time   Solar   Ave.   Ave.  Ave.  Vector  Max.   Baro.   Total    
  of    of     Rad.   Air    Rel.  Wind   Wind   Wind  Press.  Precip.   
Year   Day            Temp.  Hum.  Speed  Dir.   Gust                    
2015   (PST)  Kw/m2    F      %     mph   deg.    mph    mb.     in.     
-------------------------------------------------------------------------
 116   13:30   0.77   55.7    27    7.8   333    15.3   785.1    0.00 
 116   13:40   0.94   55.2    26    8.6   327    17.7   785.2    0.00 
 116   13:50   0.81   55.4    26    8.1   301    16.1   785.1    0.00 
 116   14:00   0.90   56.3    25    8.3   293    17.7   785.0    0.00 
 116   14:10   0.89   56.4    25    7.7   305    15.5   785.0    0.00 
 116   14:20   0.78   56.5    24    5.7   348    13.2   785.1    0.00 
 116   14:30   0.81   57.2    24    9.9   297    21.8   785.0    0.00 
 116   14:40   0.84   57.5    24   10.8   330    20.3   785.2    0.00 
 116   14:50   0.70   56.9    24    7.8   334    22.0   785.2    0.00 
 116   15:00   0.73   56.6    25   11.1   326    22.4   785.2    0.00 
 116   15:10   0.67   56.5    26   10.9   354    19.0   785.3    0.00 
 116   15:20   0.60   56.6    26   10.5   350    18.0   785.3    0.00 
 116   15:30   0.56   56.8    26    9.9   330    19.8   785.4    0.00 
 116   15:40   0.57   56.2    26   13.3   338    23.4   785.5    0.00 
 116   15:50   0.50   55.7    26   11.3   340    21.2   785.6    0.00 
 116   16:00   0.47   55.2    26    9.0   343    18.6   785.5    0.00 
 116   16:10   0.27   54.4    27   12.2   323    23.1   785.5    0.00 
 116   16:20   0.26   53.3    28    9.5   316    17.6   785.5    0.00 
 116   16:30   0.34   52.9    28   11.8   319    18.7   785.6    0.00 
 116   16:40   0.37   53.8    28    8.3   288    20.3   785.5    0.00 
 116   16:50   0.34   53.7    27    9.0   320    17.0   785.5    0.00 
 116   17:00   0.28   53.9    27    8.0   303    18.9   785.5    0.00 
 116   17:10   0.27   53.4    27    9.8   322    20.0   785.7    0.00 
 116   17:20   0.24   53.2    27    9.0   293    15.2   785.7    0.00 
 116   17:30   0.19   53.2    27    8.1   297    15.4   785.7    0.00 
 116   17:40   0.16   52.7    27    9.6   284    19.4   785.7    0.00 
 116   17:50   0.11   51.4    28    9.6   289    16.8   785.8    0.00 
 116   18:00   0.06   50.0    29   11.1   281    20.1   785.8    0.00 
 116   18:10   0.06   49.2    30    9.9   281    17.1   786.0    0.00 
 116   18:20   0.03   48.5    30   10.5   277    17.2   786.1    0.00 
 116   18:30   0.02   47.4    32   10.0   270    15.9   786.2    0.00 
 116   18:40   0.01   46.5    33    7.8   273    13.7   786.4    0.00 
 116   18:50   0.00   45.8    34    7.3   266    13.5   786.7    0.00 
 116   19:00   0.00   45.4    35    8.6   261    13.7   787.0    0.00 
 116   19:10   0.00   44.9    36    9.5   252    13.5   787.2    0.00 
 116   19:20   0.00   44.5    37    9.2   246    12.1   787.4    0.00 
 116   19:30   0.00   44.1    38   10.0   238    14.2   787.6    0.00 
 116   19:40   0.00   44.3    38   10.8   228    16.3   787.7    0.00 
 116   19:50   0.00   43.9    39   10.7   236    15.7   787.8    0.00 
 116   20:00   0.00   44.0    39    9.1   231    13.1   787.9    0.00 
 116   20:10   0.00   43.2    40    7.7   245    11.7   788.1    0.00 
 116   20:20   0.00   43.1    40    7.2   251    13.2   788.3    0.00 
 116   20:30   0.00   42.4    42    6.9   255    10.8   788.4    0.00 
 116   20:40   0.00   42.0    42    5.5   246     8.0   788.7    0.00 
 116   20:50   0.00   40.2    46    6.6   211     8.2   788.8    0.00 
 116   21:00   0.00   38.1    48    4.1   237     6.5   788.9    0.00 
 116   21:10   0.00   37.3    50    6.3   230     8.6   788.9    0.00 
 116   21:20   0.00   38.8    49    4.5   238     9.5   788.9    0.00 
 116   21:30   0.00   38.9    48    6.7   258     8.8   788.9    0.00 
 116   21:40   0.00   40.4    46    5.5   266     9.3   788.8    0.00 
 116   21:50   0.00   41.0    45    6.5   248     8.8   788.8    0.00 
 116   22:00   0.00   38.7    49    5.6   229     9.2   788.9    0.00 
 116   22:10   0.00   38.8    49    5.0   240    10.1   788.9    0.00 
 116   22:20   0.00   38.3    50    5.6   230    11.0   789.0    0.00 
 116   22:30   0.00   38.1    51    4.7   219     6.9   789.0    0.00 
 116   22:40   0.00   37.7    51    4.8   250     7.9   789.0    0.00 
 116   22:50   0.00   36.7    53    6.8   259    10.2   789.0    0.00 
 116   23:00   0.00   38.1    51    5.6   263     9.5   788.9    0.00 
 116   23:10   0.00   37.8    52    6.9   219    10.4   788.8    0.00 
 116   23:20   0.00   38.4    52    7.4   208    10.6   788.9    0.00 
 116   23:30   0.00   39.2    50    4.8   212     9.0   788.9    0.00 
 116   23:40   0.00   38.6    50    4.0   263     6.8   788.8    0.00 
 116   23:50   0.00   37.2    53    5.9   236    12.3   788.8    0.00 
 117    0:00   0.00   38.7    50    6.2   220     9.4   788.7    0.00 
 117    0:10   0.00   39.2    49    5.7   252    10.0   788.7    0.00 
 117    0:20   0.00   37.4    52    7.2   252    11.0   788.6    0.00 
 117    0:30   0.00   37.5    52    4.3   283     6.9   788.5    0.00 
 117    0:40   0.00   36.6    53    6.1   236     9.1   788.5    0.00 
 117    0:50   0.00   36.1    55    6.5   219     9.9   788.4    0.00 
 117    1:00   0.00   36.6    54    5.1   236    10.3   788.5    0.00 
 117    1:10   0.00   36.8    54    5.9   264     9.1   788.4    0.00 
 117    1:20   0.00   37.0    54    7.1   252     9.8   788.4    0.00 
 117    1:30   0.00   37.6    52    5.9   244     8.7   788.4    0.00 
 117    1:40   0.00   36.8    54    6.8   234    10.4   788.3    0.00 
 117    1:50   0.00   36.5    55    8.8   232    12.2   788.2    0.00 
 117    2:00   0.00   37.3    54    9.0   211    11.3   788.2    0.00 
 117    2:10   0.00   36.4    54    6.0   225     9.6   788.1    0.00 
 117    2:20   0.00   36.1    55    7.7   245    13.4   788.2    0.00 
 117    2:30   0.00   38.0    52    6.8   216    11.8   788.2    0.00 
 117    2:40   0.00   37.3    54    6.2   227     9.7   788.1    0.00 
 117    2:50   0.00   37.2    53    6.3   248     9.9   788.0    0.00 
 117    3:00   0.00   37.1    54    5.9   230     9.9   787.9    0.00 
 117    3:10   0.00   36.2    55    5.4   267     8.1   787.8    0.00 
 117    3:20   0.00   37.2    54    5.5   267     9.3   787.8    0.00 
 117    3:30   0.00   37.5    53    4.2   287     7.2   787.7    0.00 
 117    3:40   0.00   36.2    56    7.3   248     9.7   787.8    0.00 
 117    3:50   0.00   37.0    55    7.5   245    11.7   787.8    0.00 
 117    4:00   0.00   37.6    53    7.3   246    10.0   787.9    0.00 
 117    4:10   0.00   37.5    53    8.5   256    11.8   787.9    0.00 
 117    4:20   0.00   36.3    56    8.9   256    13.6   787.9    0.00 
 117    4:30   0.00   37.2    54    8.4   258    12.1   787.8    0.00 
 117    4:40   0.00   37.9    52    8.9   256    12.3   787.9    0.00 
 117    4:50   0.00   38.5    51    9.1   251    13.7   788.0    0.00 
 117    5:00   0.00   38.5    51    9.3   255    12.9   788.0    0.00 
 117    5:10   0.00   38.3    51    8.6   262    12.6   788.1    0.00 
 117    5:20   0.01   38.6    50    9.7   257    15.5   788.1    0.00 
 117    5:30   0.04   39.7    48   10.4   254    18.6   788.1    0.00 
 117    5:40   0.06   40.8    46   10.3   257    16.4   788.2    0.00 
 117    5:50   0.09   41.3    45    8.9   268    13.4   788.2    0.00 
 117    6:00   0.13   41.9    44    9.2   270    17.7   788.3    0.00 
 117    6:10   0.16   42.6    42    9.1   272    13.9   788.4    0.00 
 117    6:20   0.19   43.4    41    9.6   272    15.3   788.4    0.00 
 117    6:30   0.23   43.9    40    9.3   269    15.1   788.5    0.00 
 117    6:40   0.26   44.4    39    9.8   269    16.6   788.6    0.00 
 117    6:50   0.30   45.0    38   10.0   265    14.3   788.5    0.00 
 117    7:00   0.34   45.9    37   10.3   264    16.3   788.5    0.00 
 117    7:10   0.38   47.2    37    8.9   265    15.1   788.5    0.00 
 117    7:20   0.39   47.4    37    9.6   274    13.6   788.4    0.00 
 117    7:30   0.44   47.6    37    9.3   278    16.7   788.3    0.00 
 117    7:40   0.49   47.6    36    8.8   294    13.7   788.3    0.00 
 117    7:50   0.52   48.2    36    8.4   281    14.2   788.3    0.00 
 117    8:00   0.55   48.9    35    8.0   280    14.8   788.3    0.00 
 117    8:10   0.59   49.2    34    8.6   284    15.3   788.3    0.00 
 117    8:20   0.58   50.2    34    8.2   270    13.7   788.2    0.00 
 117    8:30   0.65   50.5    33    7.9   275    13.6   788.1    0.00 
 117    8:40   0.67   51.3    32    7.7   263    12.5   788.1    0.00 
 117    8:50   0.71   51.5    32    8.2   265    14.7   788.1    0.00 
 117    9:00   0.74   52.4    31    8.4   262    14.9   788.1    0.00 
 117    9:10   0.77   53.2    30    6.1   277    13.2   788.1    0.00 
 117    9:20   0.80   53.8    29    7.6   274    14.8   788.1    0.00 
 117    9:30   0.82   53.7    29    7.9   291    15.5   788.1    0.00 
 117    9:40   0.84   54.0    29    8.6   278    16.5   788.0    0.00 
 117    9:50   0.86   53.9    29    6.9   282    15.1   788.0    0.00 
 117   10:00   0.88   54.8    28    6.1   263    13.4   787.9    0.00 
 117   10:10   0.90   55.3    28    7.3   240    12.4   787.9    0.00 
 117   10:20   0.92   56.5    27    6.8   273    14.6   787.9    0.00 
 117   10:30   0.93   56.9    26    6.3   275    13.0   787.9    0.00 
 117   10:40   0.95   57.0    26    5.8   292    13.2   787.9    0.00 
 117   10:50   0.96   57.1    25    4.3   305    10.4   787.9    0.00 
 117   11:00   0.97   58.4    24    6.1   263    12.5   787.9    0.00 
 117   11:10   0.98   58.4    24    6.3   240    13.2   788.0    0.00 
 117   11:20   0.98   59.3    24    7.7   257    13.2   788.0    0.00 
 117   11:30   0.99   59.9    23    6.8   300    13.5   787.9    0.00 
 117   11:40   0.99   59.6    24    6.5   277    12.2   787.8    0.00 
 117   11:50   0.99   61.1    22    4.9   314    11.0   787.7    0.00 
 117   12:00   0.99   60.7    22    5.5   273    10.8   787.6    0.00 
 117   12:10   0.99   60.7    22    4.6   314     9.9   787.5    0.00 
 117   12:20   0.99   61.5    21    4.3   211    12.4   787.4    0.00 
 117   12:30   0.99   62.4    21    3.5   237     9.4   787.3    0.00 
 117   12:40   0.98   62.7    19    4.2   346    10.8   787.3    0.00 
 117   12:50   0.98   63.3    18    5.7    16    12.1   787.2    0.00 
 117   13:00   0.97   63.8    18    5.9    10    12.1   787.2    0.00 
 117   13:10   0.96   64.2    18    6.0    32    13.6   787.1    0.00 
 117   13:20   0.94   64.3    18    4.9    57     8.4   787.1    0.00 

Return to SNARL Reserve graphs page.


Western Regional Climate Center,wrcc@dri.edu